Jump to content

Recommended Posts

  • 3 weeks later...
On 9/27/2020 at 5:44 AM, FlightSimSoft.com said:

The weather problems should be solved now!

 

 Best regards 

Judith 

Currently it is 18OCT 1435Z. Weather server is down since 17OCT 1939Z.

Link to post
Share on other sites
8 minutes ago, B777ER said:

Currently it is 18OCT 1435Z. Weather server is down since 17OCT 1939Z.

 

All ok here:

 

EGLL 181420Z AUTO 28006KT 240V310 9999 FEW037 BKN045 12/07 Q1023 NOSIG
EGLL 181056Z 1812/1918 29004KT 9999 SCT045
  PROB40 1823/1909 8000
  BECMG 1906/1909 16010KT

Link to post
Share on other sites

Create an account or sign in to comment

You need to be a member in order to leave a comment

Create an account

Sign up for a new account in our community. It's easy!

Register a new account

Sign in

Already have an account? Sign in here.

Sign In Now
×
×
  • Create New...